createdAt,value
2022-08-19T00:00:15.087Z,12.68
2022-08-19T00:05:17.111Z,11.52
2022-08-19T00:10:20.634Z,11.85
2022-08-19T00:15:23.551Z,14.13
2022-08-19T00:20:25.219Z,14.43
2022-08-19T00:25:30.350Z,13.10
2022-08-19T00:30:32.446Z,13.48
2022-08-19T00:35:34.617Z,13.40
2022-08-19T00:40:36.280Z,15.23
2022-08-19T00:45:37.983Z,14.40
2022-08-19T00:50:52.062Z,12.07
2022-08-19T00:55:57.686Z,12.98
2022-08-19T01:00:59.563Z,14.35
2022-08-19T01:06:01.404Z,12.18
2022-08-19T01:11:03.640Z,13.18
2022-08-19T01:16:13.502Z,14.45
2022-08-19T01:21:30.867Z,11.80
2022-08-19T01:26:32.476Z,10.98
2022-08-19T01:31:34.666Z,13.35
2022-08-19T01:36:42.924Z,16.27
2022-08-19T01:41:44.728Z,12.75
2022-08-19T01:46:48.857Z,13.10
2022-08-19T01:51:50.725Z,10.93
2022-08-19T01:56:56.097Z,12.05
2022-08-19T02:01:57.760Z,14.48
2022-08-19T02:06:59.336Z,12.13
2022-08-19T02:12:01.715Z,13.40
2022-08-19T02:17:03.921Z,14.30
2022-08-19T02:22:05.893Z,13.50
2022-08-19T02:27:07.667Z,14.20
2022-08-19T02:32:09.275Z,13.15
2022-08-19T02:37:30.919Z,13.50
2022-08-19T02:42:37.014Z,11.82
2022-08-19T02:47:38.748Z,15.00
2022-08-19T02:52:40.351Z,12.18
2022-08-19T02:57:43.028Z,12.80
2022-08-19T03:02:44.710Z,13.20
2022-08-19T03:07:47.566Z,12.82
2022-08-19T03:12:49.254Z,12.10
2022-08-19T03:17:51.022Z,12.38
2022-08-19T03:22:52.686Z,13.68
2022-08-19T03:27:54.373Z,14.68
2022-08-19T03:32:57.048Z,13.85
2022-08-19T03:38:01.842Z,13.85
2022-08-19T03:43:03.893Z,16.25
2022-08-19T03:48:05.636Z,14.45
2022-08-19T03:53:08.377Z,17.20
2022-08-19T03:58:12.059Z,15.32
2022-08-19T04:03:13.671Z,15.35
2022-08-19T04:08:19.134Z,15.70
2022-08-19T04:13:20.774Z,14.73
2022-08-19T04:18:22.343Z,16.05
2022-08-19T04:23:24.766Z,17.10
2022-08-19T04:28:27.100Z,17.33
2022-08-19T04:33:29.643Z,18.17
2022-08-19T04:38:31.302Z,14.57
2022-08-19T04:43:33.808Z,18.33
2022-08-19T04:48:36.568Z,15.45
2022-08-19T04:53:47.048Z,21.23
2022-08-19T04:58:49.489Z,19.05
2022-08-19T05:03:51.520Z,16.48
2022-08-19T05:08:53.181Z,18.23
2022-08-19T05:13:55.752Z,16.75
2022-08-19T05:19:16.031Z,19.63
2022-08-19T05:24:18.261Z,20.35
2022-08-19T05:29:22.398Z,16.80
2022-08-19T05:34:27.009Z,21.48
2022-08-19T05:39:31.712Z,18.13
2022-08-19T05:44:37.375Z,17.05
2022-08-19T05:49:39.391Z,18.60
2022-08-19T05:54:42.584Z,19.95
2022-08-19T05:59:46.796Z,18.25
2022-08-19T06:04:48.389Z,20.33
2022-08-19T06:09:59.811Z,17.95
2022-08-19T06:15:06.913Z,21.23
2022-08-19T06:20:12.981Z,16.70
2022-08-19T06:25:15.715Z,19.70
2022-08-19T06:30:17.580Z,16.13
2022-08-19T06:35:19.464Z,16.55
2022-08-19T06:40:21.209Z,18.42
2022-08-19T06:45:34.405Z,21.80
2022-08-19T06:50:39.396Z,17.65
2022-08-19T06:55:42.147Z,18.02
2022-08-19T07:00:43.834Z,17.33
2022-08-19T07:05:46.258Z,16.38
2022-08-19T07:10:48.947Z,16.42
2022-08-19T07:15:51.293Z,16.00
2022-08-19T07:21:04.319Z,17.27
2022-08-19T07:26:20.298Z,15.93
2022-08-19T07:31:31.111Z,15.55
2022-08-19T07:36:33.332Z,15.57
2022-08-19T07:41:37.992Z,17.25
2022-08-19T07:46:42.178Z,14.82
2022-08-19T07:51:49.350Z,22.92
2022-08-19T07:56:52.508Z,15.15
2022-08-19T08:01:54.914Z,17.83
2022-08-19T08:07:15.514Z,13.38
2022-08-19T08:12:34.101Z,16.48
2022-08-19T08:17:49.678Z,15.52
2022-08-19T08:23:12.099Z,12.35
2022-08-19T08:28:17.656Z,18.85
2022-08-19T08:33:32.769Z,11.73
2022-08-19T08:38:41.706Z,16.10
2022-08-19T08:43:47.282Z,14.73
2022-08-19T08:49:15.184Z,13.63
2022-08-19T08:54:21.624Z,13.70
2022-08-19T08:59:33.392Z,15.98
2022-08-19T09:04:36.871Z,12.32
2022-08-19T09:09:42.904Z,11.40
2022-08-19T09:15:05.443Z,13.10
2022-08-19T09:20:11.273Z,10.10
2022-08-19T09:25:16.400Z,15.32
2022-08-19T09:30:24.886Z,11.35
2022-08-19T09:35:29.881Z,12.98
2022-08-19T09:40:35.465Z,11.02
2022-08-19T09:45:40.417Z,12.63
2022-08-19T09:50:51.874Z,10.40
2022-08-19T09:55:56.290Z,10.93
2022-08-19T10:00:59.655Z,10.68
2022-08-19T10:06:04.417Z,13.95
2022-08-19T10:11:27.259Z,13.15
2022-08-19T10:16:30.160Z,14.02
2022-08-19T10:21:33.974Z,12.82
2022-08-19T10:26:38.147Z,15.48
2022-08-19T10:31:59.788Z,13.77
2022-08-19T10:37:02.146Z,14.45
2022-08-19T10:42:08.037Z,11.73
2022-08-19T10:47:21.875Z,14.35
2022-08-19T10:52:38.981Z,10.00
2022-08-19T10:58:01.278Z,13.00
2022-08-19T11:03:03.060Z,10.10
2022-08-19T11:08:22.092Z,8.48
2022-08-19T11:13:25.664Z,10.25
2022-08-19T11:18:27.561Z,8.40
2022-08-19T11:23:29.187Z,9.13
2022-08-19T11:28:30.984Z,8.82
2022-08-19T11:33:33.765Z,8.50
2022-08-19T11:38:36.692Z,6.25
2022-08-19T11:43:38.780Z,6.30
2022-08-19T11:48:41.136Z,6.82
2022-08-19T11:53:42.797Z,5.72
2022-08-19T11:58:44.754Z,5.35
2022-08-19T12:03:48.465Z,5.80
2022-08-19T12:08:50.650Z,7.10
2022-08-19T12:13:53.169Z,5.13
2022-08-19T12:18:56.730Z,11.10
2022-08-19T12:24:00.036Z,4.85
2022-08-19T12:29:01.705Z,7.63
2022-08-19T12:34:03.500Z,7.32
2022-08-19T12:39:07.566Z,6.13
2022-08-19T12:44:13.419Z,5.55
2022-08-19T12:49:52.172Z,8.63
2022-08-19T12:54:38.503Z,7.32
2022-08-19T12:59:40.162Z,6.18
2022-08-19T13:04:42.142Z,9.90
2022-08-19T13:09:43.815Z,9.00
2022-08-19T13:14:51.399Z,8.18
2022-08-19T13:19:53.123Z,10.52
2022-08-19T13:24:54.881Z,8.40
2022-08-19T13:30:15.044Z,7.03
2022-08-19T13:35:18.067Z,8.45
2022-08-19T13:40:27.207Z,8.15
2022-08-19T13:45:30.865Z,7.35
2022-08-19T13:50:32.535Z,7.38
2022-08-19T13:55:34.704Z,6.30
2022-08-19T14:00:40.163Z,6.35
2022-08-19T14:05:41.815Z,4.30
2022-08-19T14:10:45.747Z,8.20
2022-08-19T14:15:48.448Z,8.52
2022-08-19T14:20:50.133Z,7.55
2022-08-19T14:25:51.804Z,7.28
2022-08-19T14:30:56.547Z,7.70
2022-08-19T14:35:59.602Z,9.80
2022-08-19T14:41:09.089Z,8.05
2022-08-19T14:46:11.541Z,5.75
2022-08-19T14:51:13.918Z,7.93
2022-08-19T14:56:19.259Z,6.45
2022-08-19T15:01:23.515Z,6.50
2022-08-19T15:06:26.302Z,6.75
2022-08-19T15:11:28.859Z,7.25
2022-08-19T15:16:30.978Z,7.22
2022-08-19T15:21:33.375Z,13.15
2022-08-19T15:26:34.990Z,13.70
2022-08-19T15:31:38.237Z,16.45
2022-08-19T15:36:40.524Z,13.23
2022-08-19T15:41:42.911Z,16.40
2022-08-19T15:46:48.750Z,12.50
2022-08-19T15:51:53.005Z,14.48
2022-08-19T15:57:13.307Z,13.90
2022-08-19T16:02:37.213Z,16.85
2022-08-19T16:07:39.212Z,19.20
2022-08-19T16:12:41.641Z,19.80
2022-08-19T16:17:43.551Z,16.92
2022-08-19T16:22:59.218Z,20.48
2022-08-19T16:28:06.538Z,17.05
2022-08-19T16:33:10.169Z,24.10
2022-08-19T16:38:11.954Z,19.80
2022-08-19T16:43:13.527Z,17.88
2022-08-19T16:48:15.114Z,16.65
2022-08-19T16:53:19.548Z,29.02
2022-08-19T16:58:22.459Z,16.30
2022-08-19T17:03:35.805Z,16.63
2022-08-19T17:08:37.729Z,15.63
2022-08-19T17:13:39.288Z,18.92
2022-08-19T17:18:40.920Z,23.48
2022-08-19T17:23:44.107Z,18.88
2022-08-19T17:28:51.352Z,20.45
2022-08-19T17:33:55.032Z,19.23
2022-08-19T17:39:00.560Z,15.65
2022-08-19T17:44:03.387Z,20.35
2022-08-19T17:49:05.045Z,18.50
2022-08-19T17:54:15.938Z,16.05
2022-08-19T17:59:17.547Z,20.35
2022-08-19T18:04:20.065Z,15.05
2022-08-19T18:09:38.715Z,17.35
2022-08-19T18:14:44.284Z,18.65
2022-08-19T18:19:47.642Z,17.77
2022-08-19T18:24:49.627Z,15.25
2022-08-19T18:29:51.287Z,18.08
2022-08-19T18:34:53.725Z,17.48
2022-08-19T18:40:14.089Z,20.67
2022-08-19T18:45:34.368Z,16.13
2022-08-19T18:50:37.534Z,20.42
2022-08-19T18:55:39.359Z,17.05
2022-08-19T19:00:41.977Z,16.67
2022-08-19T19:05:44.369Z,17.83
2022-08-19T19:10:45.999Z,20.67
2022-08-19T19:15:48.807Z,22.40
2022-08-19T19:20:50.415Z,18.13
2022-08-19T19:25:52.434Z,22.30
2022-08-19T19:30:58.536Z,24.95
2022-08-19T19:36:00.202Z,22.08
2022-08-19T19:41:02.152Z,20.48
2022-08-19T19:46:03.890Z,19.13
2022-08-19T19:51:09.247Z,19.73
2022-08-19T19:56:13.031Z,15.10
2022-08-19T20:01:21.699Z,11.40
2022-08-19T20:06:29.079Z,12.07
2022-08-19T20:11:47.166Z,18.98
2022-08-19T20:16:49.885Z,14.80
2022-08-19T20:21:52.206Z,16.90
2022-08-19T20:26:54.144Z,13.10
2022-08-19T20:31:57.791Z,15.90
2022-08-19T20:37:01.117Z,11.50
2022-08-19T20:42:02.714Z,11.48
2022-08-19T20:47:04.448Z,17.70
2022-08-19T20:52:06.592Z,14.15
2022-08-19T20:57:08.801Z,10.23
2022-08-19T21:02:11.213Z,11.25
2022-08-19T21:07:12.793Z,15.98
2022-08-19T21:12:14.665Z,11.45
2022-08-19T21:17:16.252Z,13.02
2022-08-19T21:22:17.823Z,12.15
2022-08-19T21:27:19.408Z,16.48
2022-08-19T21:32:21.526Z,15.75
2022-08-19T21:37:25.614Z,11.10
2022-08-19T21:42:27.720Z,14.23
2022-08-19T21:47:29.287Z,10.52
2022-08-19T21:52:30.969Z,10.63
2022-08-19T21:57:32.715Z,10.75
2022-08-19T22:02:34.589Z,12.85
2022-08-19T22:07:37.010Z,14.05
2022-08-19T22:12:47.387Z,12.68
2022-08-19T22:17:54.482Z,12.45
2022-08-19T22:22:59.465Z,10.15
2022-08-19T22:28:03.566Z,12.50
2022-08-19T22:33:09.138Z,12.98
2022-08-19T22:38:11.988Z,12.40
2022-08-19T22:43:18.140Z,12.10
2022-08-19T22:48:22.813Z,11.60
2022-08-19T22:53:24.398Z,11.48
2022-08-19T22:58:28.158Z,10.90
2022-08-19T23:03:30.242Z,9.27
2022-08-19T23:08:31.826Z,15.18
2022-08-19T23:13:33.518Z,12.57
2022-08-19T23:18:35.357Z,15.25
2022-08-19T23:23:39.342Z,11.63
2022-08-19T23:28:59.289Z,13.93
2022-08-19T23:34:01.031Z,12.98
2022-08-19T23:39:03.006Z,13.10
2022-08-19T23:44:05.638Z,15.00
2022-08-19T23:49:16.128Z,11.00
2022-08-19T23:54:17.796Z,10.55
2022-08-19T23:59:19.662Z,16.13
